Theodore, Alabama
Current Conditions -  °F | °C
As of 9:53 AM on Saturday 20 Dec 2014 (Local Time) from KBFM Reporting Station
Light Rain Light Rain  
Wind Chill: 50°   Ceiling: 800
Heat Index: 50°   Visibility: 10mi
Dew Point: 47°   Wind: 12mph
Humidity: 89%   Direction: 20°NNE
Pressure: 30.18"   Gusts: NA
Location:  30.55°N, 88.18°W
Report Text: KBFM 201553Z 02010KT 10SM -RA OVC008 10/08 A3018 RMK AO2 RAE22B45 SLP218 P0000 T01000083
Loading
Personal Weather Stations






























Interactive Weather Map New forecast layout! Learn more

10-Day Weather Forecast

Advertisements
Track Severe Weather on mobile